sensor_id;sensor_type;location;lat;lon;timestamp;pressure;altitude;pressure_sealevel;temperature;humidity
25232;BME280;13176;51.140;6.290;2023-05-07T00:01:12;100858.31;;;19.26;85.39
25232;BME280;13176;51.140;6.290;2023-05-07T00:03:38;100809.50;;;18.95;85.69
25232;BME280;13176;51.140;6.290;2023-05-07T00:06:05;100862.78;;;19.26;85.79
25232;BME280;13176;51.140;6.290;2023-05-07T00:08:32;100893.66;;;19.44;85.68
25232;BME280;13176;51.140;6.290;2023-05-07T00:10:59;100869.94;;;19.24;85.71
25232;BME280;13176;51.140;6.290;2023-05-07T00:13:25;100753.44;;;18.50;85.57
25232;BME280;13176;51.140;6.290;2023-05-07T00:15:52;100862.78;;;19.26;85.78
25232;BME280;13176;51.140;6.290;2023-05-07T00:18:18;100869.94;;;19.24;85.99
25232;BME280;13176;51.140;6.290;2023-05-07T00:20:47;100889.25;;;19.26;86.11
25232;BME280;13176;51.140;6.290;2023-05-07T00:23:13;100891.88;;;19.26;86.56
25232;BME280;13176;51.140;6.290;2023-05-07T00:25:40;100772.44;;;18.58;86.60
25232;BME280;13176;51.140;6.290;2023-05-07T00:28:06;100760.72;;;18.45;86.39
25232;BME280;13176;51.140;6.290;2023-05-07T00:30:32;100846.25;;;19.01;86.51
25232;BME280;13176;51.140;6.290;2023-05-07T00:32:59;100775.25;;;18.55;86.78
25232;BME280;13176;51.140;6.290;2023-05-07T00:35:25;100857.56;;;19.04;86.83
25232;BME280;13176;51.140;6.290;2023-05-07T00:37:52;100845.00;;;19.09;86.35
25232;BME280;13176;51.140;6.290;2023-05-07T00:40:18;100798.16;;;18.74;86.02
25232;BME280;13176;51.140;6.290;2023-05-07T00:42:45;100883.06;;;19.44;85.31
25232;BME280;13176;51.140;6.290;2023-05-07T00:45:13;100883.22;;;19.41;85.73
25232;BME280;13176;51.140;6.290;2023-05-07T00:47:40;100864.34;;;19.30;85.29
25232;BME280;13176;51.140;6.290;2023-05-07T00:50:08;100752.88;;;18.62;85.11
25232;BME280;13176;51.140;6.290;2023-05-07T00:52:37;100771.91;;;18.70;85.58
25232;BME280;13176;51.140;6.290;2023-05-07T00:55:05;100882.78;;;19.31;85.68
25232;BME280;13176;51.140;6.290;2023-05-07T00:57:36;100736.00;;;18.46;85.79
25232;BME280;13176;51.140;6.290;2023-05-07T01:00:04;100867.56;;;19.18;85.77
25232;BME280;13176;51.140;6.290;2023-05-07T01:02:31;100770.09;;;18.52;85.71
25232;BME280;13176;51.140;6.290;2023-05-07T01:04:57;100875.34;;;19.21;86.31
25232;BME280;13176;51.140;6.290;2023-05-07T01:07:24;100837.38;;;19.02;86.16
25232;BME280;13176;51.140;6.290;2023-05-07T01:09:51;100742.34;;;18.42;86.34
25232;BME280;13176;51.140;6.290;2023-05-07T01:12:18;100823.81;;;18.91;86.31
25232;BME280;13176;51.140;6.290;2023-05-07T01:14:44;100765.75;;;18.51;86.22
25232;BME280;13176;51.140;6.290;2023-05-07T01:17:11;100762.16;;;18.52;86.58
25232;BME280;13176;51.140;6.290;2023-05-07T01:19:37;100849.28;;;19.12;86.44
25232;BME280;13176;51.140;6.290;2023-05-07T01:22:08;100867.56;;;19.18;86.47
25232;BME280;13176;51.140;6.290;2023-05-07T01:24:36;100856.56;;;19.07;86.58
25232;BME280;13176;51.140;6.290;2023-05-07T01:27:03;100860.09;;;19.07;86.61
25232;BME280;13176;51.140;6.290;2023-05-07T01:29:30;100745.13;;;18.39;87.02
25232;BME280;13176;51.140;6.290;2023-05-07T01:31:59;100862.06;;;19.02;87.21
25232;BME280;13176;51.140;6.290;2023-05-07T01:34:28;100728.75;;;18.11;87.36
25232;BME280;13176;51.140;6.290;2023-05-07T01:36:56;100848.69;;;18.87;87.10
25232;BME280;13176;51.140;6.290;2023-05-07T01:39:25;100864.72;;;19.02;87.24
25232;BME280;13176;51.140;6.290;2023-05-07T01:41:55;100835.59;;;18.84;87.13
25232;BME280;13176;51.140;6.290;2023-05-07T01:44:23;100830.31;;;18.84;87.19
25232;BME280;13176;51.140;6.290;2023-05-07T01:46:50;100836.53;;;18.83;87.01
25232;BME280;13176;51.140;6.290;2023-05-07T01:49:17;100769.84;;;18.38;86.90
25232;BME280;13176;51.140;6.290;2023-05-07T01:51:44;100848.69;;;18.87;87.04
25232;BME280;13176;51.140;6.290;2023-05-07T01:54:11;100797.91;;;18.60;87.01
25232;BME280;13176;51.140;6.290;2023-05-07T01:56:37;100838.25;;;18.84;87.12
25232;BME280;13176;51.140;6.290;2023-05-07T01:59:04;100835.59;;;18.84;86.68
25232;BME280;13176;51.140;6.290;2023-05-07T02:01:31;100839.09;;;18.84;86.63
25232;BME280;13176;51.140;6.290;2023-05-07T02:03:57;100824.50;;;18.76;86.38
25232;BME280;13176;51.140;6.290;2023-05-07T02:06:24;100836.53;;;18.83;85.93
25232;BME280;13176;51.140;6.290;2023-05-07T02:08:51;100813.13;;;18.74;85.80
25232;BME280;13176;51.140;6.290;2023-05-07T02:11:17;100745.53;;;18.30;85.42
25232;BME280;13176;51.140;6.290;2023-05-07T02:13:43;100832.44;;;18.76;85.99
25232;BME280;13176;51.140;6.290;2023-05-07T02:16:10;100749.63;;;18.17;85.90
25232;BME280;13176;51.140;6.290;2023-05-07T02:18:37;100798.56;;;18.45;86.08
25232;BME280;13176;51.140;6.290;2023-05-07T02:21:03;100811.72;;;18.47;86.14
25232;BME280;13176;51.140;6.290;2023-05-07T02:23:30;100782.78;;;18.24;86.28
25232;BME280;13176;51.140;6.290;2023-05-07T02:25:56;100785.81;;;18.35;86.65
25232;BME280;13176;51.140;6.290;2023-05-07T02:28:23;100810.28;;;18.40;86.20
25232;BME280;13176;51.140;6.290;2023-05-07T02:30:49;100767.47;;;18.12;86.47
25232;BME280;13176;51.140;6.290;2023-05-07T02:33:16;100764.28;;;18.04;86.50
25232;BME280;13176;51.140;6.290;2023-05-07T02:35:43;100827.97;;;18.38;86.30
25232;BME280;13176;51.140;6.290;2023-05-07T02:38:09;100822.97;;;18.32;86.42
25232;BME280;13176;51.140;6.290;2023-05-07T02:40:37;100820.75;;;18.22;86.93
25232;BME280;13176;51.140;6.290;2023-05-07T02:43:06;100834.03;;;18.20;86.60
25232;BME280;13176;51.140;6.290;2023-05-07T02:45:33;100745.44;;;17.72;86.89
25232;BME280;13176;51.140;6.290;2023-05-07T02:47:59;100666.59;;;17.23;86.58
25232;BME280;13176;51.140;6.290;2023-05-07T02:50:26;100763.56;;;18.01;86.03
25232;BME280;13176;51.140;6.290;2023-05-07T02:52:53;100849.00;;;18.41;86.33
25232;BME280;13176;51.140;6.290;2023-05-07T02:55:20;100830.84;;;18.34;86.46
25232;BME280;13176;51.140;6.290;2023-05-07T02:57:46;100813.53;;;18.27;86.50
25232;BME280;13176;51.140;6.290;2023-05-07T03:00:17;100844.56;;;18.41;86.45
25232;BME280;13176;51.140;6.290;2023-05-07T03:02:44;100854.69;;;18.52;86.46
25232;BME280;13176;51.140;6.290;2023-05-07T03:05:11;100831.69;;;18.34;86.58
25232;BME280;13176;51.140;6.290;2023-05-07T03:07:38;100824.09;;;18.27;86.62
25232;BME280;13176;51.140;6.290;2023-05-07T03:10:05;100848.88;;;18.44;86.93
25232;BME280;13176;51.140;6.290;2023-05-07T03:12:32;100776.94;;;17.96;87.10
25232;BME280;13176;51.140;6.290;2023-05-07T03:14:58;100726.28;;;17.67;87.06
25232;BME280;13176;51.140;6.290;2023-05-07T03:17:25;100840.78;;;18.27;87.25
25232;BME280;13176;51.140;6.290;2023-05-07T03:19:51;100845.22;;;18.27;87.17
25232;BME280;13176;51.140;6.290;2023-05-07T03:22:18;100753.44;;;17.70;86.98
25232;BME280;13176;51.140;6.290;2023-05-07T03:24:44;100785.91;;;17.92;87.38
25232;BME280;13176;51.140;6.290;2023-05-07T03:27:11;100806.53;;;18.04;87.24
25232;BME280;13176;51.140;6.290;2023-05-07T03:29:37;100736.34;;;17.59;86.69
25232;BME280;13176;51.140;6.290;2023-05-07T03:32:04;100835.72;;;18.21;87.09
25232;BME280;13176;51.140;6.290;2023-05-07T03:34:30;100822.38;;;18.04;87.08
25232;BME280;13176;51.140;6.290;2023-05-07T03:36:57;100714.88;;;17.46;87.51
25232;BME280;13176;51.140;6.290;2023-05-07T03:39:23;100834.03;;;18.20;87.40
25232;BME280;13176;51.140;6.290;2023-05-07T03:41:49;100801.38;;;18.01;87.58
25232;BME280;13176;51.140;6.290;2023-05-07T03:44:16;100788.09;;;18.03;87.02
25232;BME280;13176;51.140;6.290;2023-05-07T03:46:42;100720.56;;;17.57;87.24
25232;BME280;13176;51.140;6.290;2023-05-07T03:49:09;100820.03;;;18.18;86.96
25232;BME280;13176;51.140;6.290;2023-05-07T03:51:36;100698.25;;;17.44;86.94
25232;BME280;13176;51.140;6.290;2023-05-07T03:54:03;100714.69;;;17.51;87.02
25232;BME280;13176;51.140;6.290;2023-05-07T03:56:29;100848.94;;;18.21;86.97
25232;BME280;13176;51.140;6.290;2023-05-07T03:58:57;100758.63;;;17.72;86.72
25232;BME280;13176;51.140;6.290;2023-05-07T04:01:24;100843.13;;;18.13;86.87
25232;BME280;13176;51.140;6.290;2023-05-07T04:03:50;100849.81;;;18.22;86.87
25232;BME280;13176;51.140;6.290;2023-05-07T04:06:17;100791.63;;;17.83;86.66
25232;BME280;13176;51.140;6.290;2023-05-07T04:08:43;100768.59;;;17.65;86.76
25232;BME280;13176;51.140;6.290;2023-05-07T04:11:10;100846.19;;;18.24;86.91
25232;BME280;13176;51.140;6.290;2023-05-07T04:13:36;100843.28;;;18.10;86.92
25232;BME280;13176;51.140;6.290;2023-05-07T04:16:06;100852.44;;;18.22;86.66
25232;BME280;13176;51.140;6.290;2023-05-07T04:18:32;100861.22;;;18.22;86.75
25232;BME280;13176;51.140;6.290;2023-05-07T04:20:58;100741.28;;;17.66;86.53
25232;BME280;13176;51.140;6.290;2023-05-07T04:23:25;100726.03;;;17.53;86.26
25232;BME280;13176;51.140;6.290;2023-05-07T04:25:51;100759.94;;;17.83;85.79
25232;BME280;13176;51.140;6.290;2023-05-07T04:28:18;100839.81;;;18.30;86.39
25232;BME280;13176;51.140;6.290;2023-05-07T04:30:44;100748.41;;;17.64;86.58
25232;BME280;13176;51.140;6.290;2023-05-07T04:33:11;100750.72;;;17.72;86.68
25232;BME280;13176;51.140;6.290;2023-05-07T04:35:37;100804.56;;;18.09;86.58
25232;BME280;13176;51.140;6.290;2023-05-07T04:38:04;100823.72;;;18.14;86.62
25232;BME280;13176;51.140;6.290;2023-05-07T04:40:30;100870.13;;;18.41;87.13
25232;BME280;13176;51.140;6.290;2023-05-07T04:42:57;100744.97;;;17.62;87.08
25232;BME280;13176;51.140;6.290;2023-05-07T04:45:23;100725.66;;;17.62;86.63
25232;BME280;13176;51.140;6.290;2023-05-07T04:47:50;100854.66;;;18.32;86.15
25232;BME280;13176;51.140;6.290;2023-05-07T04:50:16;100847.06;;;18.25;86.79
25232;BME280;13176;51.140;6.290;2023-05-07T04:52:43;100708.13;;;17.39;86.87
25232;BME280;13176;51.140;6.290;2023-05-07T04:55:10;100772.47;;;17.78;87.55
25232;BME280;13176;51.140;6.290;2023-05-07T04:57:36;100830.97;;;18.09;87.47
25232;BME280;13176;51.140;6.290;2023-05-07T05:00:06;100857.56;;;18.26;87.55
25232;BME280;13176;51.140;6.290;2023-05-07T05:02:35;100770.34;;;17.86;87.38
25232;BME280;13176;51.140;6.290;2023-05-07T05:05:01;100752.66;;;17.88;87.38
25232;BME280;13176;51.140;6.290;2023-05-07T05:07:28;100820.31;;;18.32;86.92
25232;BME280;13176;51.140;6.290;2023-05-07T05:09:54;100819.78;;;18.24;86.79
25232;BME280;13176;51.140;6.290;2023-05-07T05:12:21;100834.84;;;18.42;87.04
25232;BME280;13176;51.140;6.290;2023-05-07T05:14:48;100741.38;;;17.85;87.02
25232;BME280;13176;51.140;6.290;2023-05-07T05:17:14;100819.38;;;18.33;87.00
25232;BME280;13176;51.140;6.290;2023-05-07T05:19:41;100766.00;;;18.05;86.90
25232;BME280;13176;51.140;6.290;2023-05-07T05:22:07;100851.97;;;18.53;86.99
25232;BME280;13176;51.140;6.290;2023-05-07T05:24:33;100850.06;;;18.57;86.83
25232;BME280;13176;51.140;6.290;2023-05-07T05:27:00;100805.13;;;18.37;85.92
25232;BME280;13176;51.140;6.290;2023-05-07T05:29:27;100874.41;;;18.83;85.05
25232;BME280;13176;51.140;6.290;2023-05-07T05:31:53;100849.63;;;18.66;84.09
25232;BME280;13176;51.140;6.290;2023-05-07T05:34:20;100785.38;;;18.26;83.90
25232;BME280;13176;51.140;6.290;2023-05-07T05:36:48;100846.63;;;18.55;84.08
25232;BME280;13176;51.140;6.290;2023-05-07T05:39:14;100787.09;;;18.27;83.90
25232;BME280;13176;51.140;6.290;2023-05-07T05:41:41;100716.81;;;17.83;84.16
25232;BME280;13176;51.140;6.290;2023-05-07T05:44:07;100767.25;;;18.17;84.52
25232;BME280;13176;51.140;6.290;2023-05-07T05:46:34;100866.81;;;18.76;84.44
25232;BME280;13176;51.140;6.290;2023-05-07T05:49:02;100861.25;;;18.62;84.23
25232;BME280;13176;51.140;6.290;2023-05-07T05:51:28;100796.88;;;18.23;84.46
25232;BME280;13176;51.140;6.290;2023-05-07T05:53:55;100904.88;;;18.92;83.89
25232;BME280;13176;51.140;6.290;2023-05-07T05:56:21;100870.38;;;18.75;83.61
25232;BME280;13176;51.140;6.290;2023-05-07T05:58:48;100797.84;;;18.42;83.48
25232;BME280;13176;51.140;6.290;2023-05-07T06:01:14;100839.97;;;18.65;83.59
25232;BME280;13176;51.140;6.290;2023-05-07T06:03:41;100794.28;;;18.43;82.73
25232;BME280;13176;51.140;6.290;2023-05-07T06:06:07;100763.47;;;18.22;82.91
25232;BME280;13176;51.140;6.290;2023-05-07T06:08:33;100873.41;;;18.86;82.16
25232;BME280;13176;51.140;6.290;2023-05-07T06:11:01;100885.28;;;18.96;81.83
25232;BME280;13176;51.140;6.290;2023-05-07T06:13:28;100781.78;;;18.46;80.99
25232;BME280;13176;51.140;6.290;2023-05-07T06:15:55;100890.63;;;19.14;81.94
25232;BME280;13176;51.140;6.290;2023-05-07T06:18:21;100859.47;;;19.01;82.09
25232;BME280;13176;51.140;6.290;2023-05-07T06:20:48;100767.94;;;18.60;81.98
25232;BME280;13176;51.140;6.290;2023-05-07T06:23:15;100754.38;;;18.49;81.51
25232;BME280;13176;51.140;6.290;2023-05-07T06:25:48;100813.06;;;18.94;81.88
25232;BME280;13176;51.140;6.290;2023-05-07T06:28:15;100893.66;;;19.44;81.65
25232;BME280;13176;51.140;6.290;2023-05-07T06:30:42;100909.00;;;19.55;81.40
25232;BME280;13176;51.140;6.290;2023-05-07T06:33:09;100839.88;;;19.25;80.69
25232;BME280;13176;51.140;6.290;2023-05-07T06:35:35;100781.50;;;18.91;79.85
25232;BME280;13176;51.140;6.290;2023-05-07T06:38:02;100849.81;;;19.38;80.19
25232;BME280;13176;51.140;6.290;2023-05-07T06:40:28;100857.25;;;19.49;80.02
25232;BME280;13176;51.140;6.290;2023-05-07T06:42:54;100777.63;;;18.98;80.61
25232;BME280;13176;51.140;6.290;2023-05-07T06:45:21;100869.13;;;19.58;80.15
25232;BME280;13176;51.140;6.290;2023-05-07T06:47:47;100888.06;;;19.68;80.43
25232;BME280;13176;51.140;6.290;2023-05-07T06:50:14;100917.69;;;19.94;80.61
25232;BME280;13176;51.140;6.290;2023-05-07T06:52:43;100804.41;;;19.29;80.55
25232;BME280;13176;51.140;6.290;2023-05-07T06:55:09;100837.00;;;19.48;80.49
25232;BME280;13176;51.140;6.290;2023-05-07T06:57:35;100890.16;;;19.97;80.60
25232;BME280;13176;51.140;6.290;2023-05-07T07:00:03;100892.31;;;20.07;80.50
25232;BME280;13176;51.140;6.290;2023-05-07T07:02:30;100881.88;;;20.04;80.48
25232;BME280;13176;51.140;6.290;2023-05-07T07:04:56;100895.31;;;20.18;80.86
25232;BME280;13176;51.140;6.290;2023-05-07T07:07:23;100905.59;;;20.24;80.74
25232;BME280;13176;51.140;6.290;2023-05-07T07:09:49;100765.63;;;19.46;80.89
25232;BME280;13176;51.140;6.290;2023-05-07T07:12:16;100904.44;;;20.30;81.07
25232;BME280;13176;51.140;6.290;2023-05-07T07:14:43;100888.81;;;20.24;81.09
25232;BME280;13176;51.140;6.290;2023-05-07T07:17:10;100842.91;;;20.06;80.79
25232;BME280;13176;51.140;6.290;2023-05-07T07:19:36;100844.78;;;20.04;79.80
25232;BME280;13176;51.140;6.290;2023-05-07T07:22:03;100845.88;;;20.17;79.75
25232;BME280;13176;51.140;6.290;2023-05-07T07:24:30;100902.19;;;20.56;79.35
25232;BME280;13176;51.140;6.290;2023-05-07T07:26:56;100834.34;;;20.18;79.77
25232;BME280;13176;51.140;6.290;2023-05-07T07:29:23;100796.22;;;20.04;80.02
25232;BME280;13176;51.140;6.290;2023-05-07T07:31:49;100866.31;;;20.49;79.02
25232;BME280;13176;51.140;6.290;2023-05-07T07:34:16;100887.91;;;20.75;79.50
25232;BME280;13176;51.140;6.290;2023-05-07T07:36:42;100898.75;;;20.88;79.45
25232;BME280;13176;51.140;6.290;2023-05-07T07:39:12;100908.56;;;21.03;79.40
25232;BME280;13176;51.140;6.290;2023-05-07T07:41:39;100813.19;;;20.51;78.76
25232;BME280;13176;51.140;6.290;2023-05-07T07:44:05;100894.03;;;21.10;78.80
25232;BME280;13176;51.140;6.290;2023-05-07T07:46:33;100898.06;;;21.17;78.33
25232;BME280;13176;51.140;6.290;2023-05-07T07:49:00;100913.28;;;21.46;77.19
25232;BME280;13176;51.140;6.290;2023-05-07T07:51:27;100905.31;;;21.46;76.44
25232;BME280;13176;51.140;6.290;2023-05-07T07:53:53;100809.44;;;21.04;75.67
25232;BME280;13176;51.140;6.290;2023-05-07T07:56:20;100917.28;;;21.70;76.20
25232;BME280;13176;51.140;6.290;2023-05-07T07:58:46;100866.16;;;21.34;75.08
25232;BME280;13176;51.140;6.290;2023-05-07T08:01:13;100797.09;;;21.03;74.98
25232;BME280;13176;51.140;6.290;2023-05-07T08:03:39;100820.91;;;21.20;75.42
25232;BME280;13176;51.140;6.290;2023-05-07T08:06:06;100926.00;;;21.87;75.26
25232;BME280;13176;51.140;6.290;2023-05-07T08:08:36;100862.75;;;21.63;74.60
25232;BME280;13176;51.140;6.290;2023-05-07T08:11:03;100779.47;;;21.33;74.66
25232;BME280;13176;51.140;6.290;2023-05-07T08:13:29;100852.97;;;21.79;74.45
25232;BME280;13176;51.140;6.290;2023-05-07T08:15:56;100923.91;;;22.23;74.34
25232;BME280;13176;51.140;6.290;2023-05-07T08:18:26;100844.59;;;21.71;72.91
25232;BME280;13176;51.140;6.290;2023-05-07T08:20:57;100910.31;;;22.13;73.38
25232;BME280;13176;51.140;6.290;2023-05-07T08:23:23;100821.97;;;21.64;73.12
25232;BME280;13176;51.140;6.290;2023-05-07T08:25:53;100911.75;;;22.19;72.78
25232;BME280;13176;51.140;6.290;2023-05-07T08:28:19;100882.94;;;22.11;72.77
25232;BME280;13176;51.140;6.290;2023-05-07T08:31:08;100755.84;;;21.58;70.69
25232;BME280;13176;51.140;6.290;2023-05-07T08:33:36;100821.19;;;22.06;70.04
25232;BME280;13176;51.140;6.290;2023-05-07T08:36:25;100835.50;;;22.33;68.90
25232;BME280;13176;51.140;6.290;2023-05-07T08:38:52;100873.41;;;22.52;68.91
25232;BME280;13176;51.140;6.290;2023-05-07T08:41:21;100845.47;;;22.45;68.64
25232;BME280;13176;51.140;6.290;2023-05-07T08:43:49;100743.28;;;21.90;67.02
25232;BME280;13176;51.140;6.290;2023-05-07T08:46:20;100835.19;;;22.39;65.57
25232;BME280;13176;51.140;6.290;2023-05-07T08:48:51;100918.34;;;23.00;65.69
25232;BME280;13176;51.140;6.290;2023-05-07T08:51:21;100871.94;;;22.76;67.07
25232;BME280;13176;51.140;6.290;2023-05-07T08:53:50;100944.09;;;23.43;64.16
25232;BME280;13176;51.140;6.290;2023-05-07T08:56:17;100869.50;;;23.15;64.30
25232;BME280;13176;51.140;6.290;2023-05-07T08:58:47;100874.28;;;23.24;64.74
25232;BME280;13176;51.140;6.290;2023-05-07T09:01:15;100942.25;;;23.57;62.33
25232;BME280;13176;51.140;6.290;2023-05-07T09:03:46;100754.66;;;22.51;63.75
25232;BME280;13176;51.140;6.290;2023-05-07T09:06:13;100881.78;;;23.31;64.77
25232;BME280;13176;51.140;6.290;2023-05-07T09:08:40;100821.06;;;22.95;65.91
25232;BME280;13176;51.140;6.290;2023-05-07T09:11:06;100854.94;;;23.07;66.02
25232;BME280;13176;51.140;6.290;2023-05-07T09:13:33;100782.75;;;22.69;63.33
25232;BME280;13176;51.140;6.290;2023-05-07T09:16:10;100801.09;;;22.88;63.51
25232;BME280;13176;51.140;6.290;2023-05-07T09:18:44;100949.00;;;23.77;63.37
25232;BME280;13176;51.140;6.290;2023-05-07T09:21:12;100944.06;;;23.71;62.82
25232;BME280;13176;51.140;6.290;2023-05-07T09:23:41;100947.13;;;23.79;62.73
25232;BME280;13176;51.140;6.290;2023-05-07T09:26:08;100936.63;;;23.76;65.00
25232;BME280;13176;51.140;6.290;2023-05-07T09:28:41;100864.59;;;23.49;64.52
25232;BME280;13176;51.140;6.290;2023-05-07T09:31:09;100847.19;;;23.58;63.82
25232;BME280;13176;51.140;6.290;2023-05-07T09:33:36;100856.34;;;23.54;63.98
25232;BME280;13176;51.140;6.290;2023-05-07T09:36:04;100946.69;;;24.25;63.18
25232;BME280;13176;51.140;6.290;2023-05-07T09:38:34;100948.41;;;24.26;64.31
25232;BME280;13176;51.140;6.290;2023-05-07T09:41:07;100950.03;;;24.28;64.74
25232;BME280;13176;51.140;6.290;2023-05-07T09:43:38;100938.41;;;24.29;62.86
25232;BME280;13176;51.140;6.290;2023-05-07T09:46:11;100911.56;;;23.92;61.12
25232;BME280;13176;51.140;6.290;2023-05-07T09:48:39;100923.09;;;23.93;61.54
25232;BME280;13176;51.140;6.290;2023-05-07T09:51:15;100897.03;;;23.84;62.08
25232;BME280;13176;51.140;6.290;2023-05-07T09:53:45;100946.91;;;24.22;62.97
25232;BME280;13176;51.140;6.290;2023-05-07T09:56:13;100831.06;;;23.73;62.16
25232;BME280;13176;51.140;6.290;2023-05-07T09:58:41;100950.94;;;24.41;61.85
25232;BME280;13176;51.140;6.290;2023-05-07T10:01:10;100862.63;;;23.93;62.29
25232;BME280;13176;51.140;6.290;2023-05-07T10:03:39;100948.25;;;24.41;61.44
25232;BME280;13176;51.140;6.290;2023-05-07T10:06:08;100949.97;;;24.42;63.47
25232;BME280;13176;51.140;6.290;2023-05-07T10:08:36;100954.03;;;24.35;62.37
25232;BME280;13176;51.140;6.290;2023-05-07T10:11:04;100866.09;;;23.81;61.90
25232;BME280;13176;51.140;6.290;2023-05-07T10:13:33;100910.97;;;24.01;62.22
25232;BME280;13176;51.140;6.290;2023-05-07T10:16:05;100914.50;;;24.02;62.37
25232;BME280;13176;51.140;6.290;2023-05-07T10:18:32;100834.63;;;23.46;61.93
25232;BME280;13176;51.140;6.290;2023-05-07T10:21:17;100947.94;;;24.07;61.42
25232;BME280;13176;51.140;6.290;2023-05-07T10:24:16;100928.25;;;23.96;60.61
25232;BME280;13176;51.140;6.290;2023-05-07T10:26:47;100887.44;;;23.81;59.84
25232;BME280;13176;51.140;6.290;2023-05-07T10:32:39;100935.78;;;24.16;61.57
25232;BME280;13176;51.140;6.290;2023-05-07T10:35:11;100896.44;;;23.93;61.94
25232;BME280;13176;51.140;6.290;2023-05-07T10:37:40;100951.19;;;24.25;62.04
25232;BME280;13176;51.140;6.290;2023-05-07T10:40:08;100870.16;;;23.87;62.51
25232;BME280;13176;51.140;6.290;2023-05-07T10:42:35;100866.53;;;23.88;62.62
25232;BME280;13176;51.140;6.290;2023-05-07T10:45:12;100932.63;;;24.49;62.57
25232;BME280;13176;51.140;6.290;2023-05-07T10:48:15;100946.06;;;24.74;62.48
25232;BME280;13176;51.140;6.290;2023-05-07T10:51:18;100946.69;;;24.90;61.52
25232;BME280;13176;51.140;6.290;2023-05-07T10:53:45;100933.00;;;24.82;61.40
25232;BME280;13176;51.140;6.290;2023-05-07T10:58:47;100930.47;;;25.06;58.50
25232;BME280;13176;51.140;6.290;2023-05-07T11:01:13;100953.59;;;25.19;59.41
25232;BME280;13176;51.140;6.290;2023-05-07T11:04:12;100949.31;;;25.29;60.47
25232;BME280;13176;51.140;6.290;2023-05-07T11:06:39;100915.59;;;25.02;59.05
25232;BME280;13176;51.140;6.290;2023-05-07T11:09:07;100851.63;;;24.75;58.37
25232;BME280;13176;51.140;6.290;2023-05-07T11:11:54;100936.69;;;25.31;58.71
25232;BME280;13176;51.140;6.290;2023-05-07T11:14:43;100934.97;;;25.43;57.12
25232;BME280;13176;51.140;6.290;2023-05-07T11:17:11;100916.38;;;25.41;57.39
25232;BME280;13176;51.140;6.290;2023-05-07T11:19:51;100939.75;;;25.50;57.02
25232;BME280;13176;51.140;6.290;2023-05-07T11:22:36;100920.31;;;25.36;57.09
25232;BME280;13176;51.140;6.290;2023-05-07T11:25:03;100916.16;;;25.19;57.36
25232;BME280;13176;51.140;6.290;2023-05-07T11:27:30;100937.31;;;25.35;57.24
25232;BME280;13176;51.140;6.290;2023-05-07T11:29:56;100926.84;;;25.19;55.47
25232;BME280;13176;51.140;6.290;2023-05-07T11:32:23;100814.34;;;24.61;55.52
25232;BME280;13176;51.140;6.290;2023-05-07T11:34:54;100929.97;;;25.38;55.59
25232;BME280;13176;51.140;6.290;2023-05-07T11:37:22;100942.25;;;25.41;55.71
25232;BME280;13176;51.140;6.290;2023-05-07T11:39:49;100870.88;;;24.93;56.67
25232;BME280;13176;51.140;6.290;2023-05-07T11:42:30;100940.75;;;25.37;56.88
25232;BME280;13176;51.140;6.290;2023-05-07T11:44:57;100937.53;;;25.32;55.76
25232;BME280;13176;51.140;6.290;2023-05-07T11:47:24;100943.66;;;25.21;57.63
25232;BME280;13176;51.140;6.290;2023-05-07T11:49:53;100946.97;;;25.37;56.63
25232;BME280;13176;51.140;6.290;2023-05-07T11:52:21;100868.91;;;24.95;53.36
25232;BME280;13176;51.140;6.290;2023-05-07T11:54:52;100878.88;;;25.05;53.80
25232;BME280;13176;51.140;6.290;2023-05-07T11:57:19;100952.31;;;25.37;55.11
25232;BME280;13176;51.140;6.290;2023-05-07T11:59:46;100923.31;;;25.06;55.28
25232;BME280;13176;51.140;6.290;2023-05-07T12:02:17;100926.63;;;24.97;53.59
25232;BME280;13176;51.140;6.290;2023-05-07T12:04:44;100862.41;;;24.61;53.67
25232;BME280;13176;51.140;6.290;2023-05-07T12:07:12;100963.22;;;25.22;51.55
25232;BME280;13176;51.140;6.290;2023-05-07T12:09:40;100926.09;;;24.92;51.76
25232;BME280;13176;51.140;6.290;2023-05-07T12:12:07;100948.84;;;24.98;50.25
25232;BME280;13176;51.140;6.290;2023-05-07T12:14:45;100916.28;;;25.05;51.90
25232;BME280;13176;51.140;6.290;2023-05-07T12:17:13;100951.13;;;25.41;53.15
25232;BME280;13176;51.140;6.290;2023-05-07T12:19:43;100965.09;;;25.57;51.36
25232;BME280;13176;51.140;6.290;2023-05-07T12:22:10;100951.69;;;25.46;53.63
25232;BME280;13176;51.140;6.290;2023-05-07T12:24:57;100919.38;;;25.49;52.88
25232;BME280;13176;51.140;6.290;2023-05-07T12:27:25;100919.59;;;25.46;49.28
25232;BME280;13176;51.140;6.290;2023-05-07T12:29:52;100900.34;;;25.41;49.08
25232;BME280;13176;51.140;6.290;2023-05-07T12:32:20;100962.72;;;25.90;48.60
25232;BME280;13176;51.140;6.290;2023-05-07T12:34:50;100952.91;;;25.78;48.43
25232;BME280;13176;51.140;6.290;2023-05-07T12:37:17;100949.91;;;25.82;50.02
25232;BME280;13176;51.140;6.290;2023-05-07T12:39:50;100965.31;;;25.79;49.07
25232;BME280;13176;51.140;6.290;2023-05-07T12:42:33;100965.75;;;25.73;49.42
25232;BME280;13176;51.140;6.290;2023-05-07T12:45:13;100928.25;;;25.37;48.69
25232;BME280;13176;51.140;6.290;2023-05-07T12:47:46;100961.09;;;25.39;46.55
25232;BME280;13176;51.140;6.290;2023-05-07T12:50:14;100881.97;;;24.99;46.47
25232;BME280;13176;51.140;6.290;2023-05-07T12:52:43;100940.56;;;25.27;47.14
25232;BME280;13176;51.140;6.290;2023-05-07T12:55:13;100945.16;;;25.25;46.09
25232;BME280;13176;51.140;6.290;2023-05-07T12:57:48;100959.78;;;25.45;47.95
25232;BME280;13176;51.140;6.290;2023-05-07T13:00:14;100965.34;;;25.29;47.49
25232;BME280;13176;51.140;6.290;2023-05-07T13:02:42;100977.75;;;25.43;45.71